Time;durP1;ratioP1;P1;durP2;ratioP2;P2;SDS_P1;SDS_P2;PMS_P1;PMS_P2;Temp;Humidity;BMP_temperature;BMP_pressure;BME280_temperature;BME280_humidity;BME280_pressure;Samples;Min_cycle;Max_cycle;Signal;HPM_P1;HPM_P2
2023/06/20 00:00:08;;;;;;;14.60;13.00;;;;;;;16.12;86.93;100446.08;105065;1265;69246;-66
2023/06/20 00:02:57;;;;;;;13.90;12.50;;;;;;;16.07;87.07;100446.52;104974;1260;69104;-67
2023/06/20 00:05:26;;;;;;;15.70;14.00;;;;;;;16.05;87.14;100446.46;105064;1263;74527;-66
2023/06/20 00:07:55;;;;;;;16.80;14.30;;;;;;;16.03;87.23;100445.54;105040;1265;83705;-67
2023/06/20 00:10:23;;;;;;;15.10;13.60;;;;;;;16.02;87.36;100447.54;104948;1265;74084;-67
2023/06/20 00:12:51;;;;;;;15.90;14.10;;;;;;;15.98;87.35;100446.86;104952;1260;69097;-66
2023/06/20 00:15:25;;;;;;;19.50;15.00;;;;;;;15.96;87.37;100444.54;105057;1260;69088;-68
2023/06/20 00:17:59;;;;;;;17.30;13.40;;;;;;;15.92;87.46;100440.19;105043;1260;75407;-68
2023/06/20 00:20:29;;;;;;;16.80;13.60;;;;;;;15.88;87.52;100433.89;105115;1260;82613;-66
2023/06/20 00:22:57;;;;;;;15.40;13.80;;;;;;;15.85;87.55;100435.46;105018;1259;73613;-66
2023/06/20 00:25:25;;;;;;;15.20;13.60;;;;;;;15.82;87.72;100430.73;104983;1260;69310;-66
2023/06/20 00:27:55;;;;;;;16.30;13.90;;;;;;;15.79;87.86;100427.17;105041;1263;69145;-68
2023/06/20 00:30:23;;;;;;;15.90;13.70;;;;;;;15.77;87.97;100426.23;104984;1260;74786;-65
2023/06/20 00:32:51;;;;;;;14.60;12.70;;;;;;;15.76;88.10;100425.23;105015;1264;83733;-70
2023/06/20 00:35:20;;;;;;;15.40;13.80;;;;;;;15.74;88.13;100427.14;104966;1260;73953;-69
2023/06/20 00:37:48;;;;;;;16.80;13.50;;;;;;;15.71;88.20;100423.61;104960;1263;69906;-68
2023/06/20 00:40:17;;;;;;;15.70;14.10;;;;;;;15.68;88.27;100425.54;105028;1263;69193;-64
2023/06/20 00:42:45;;;;;;;15.00;13.40;;;;;;;15.65;88.26;100422.34;105058;1260;74743;-70
2023/06/20 00:45:34;;;;;;;14.90;13.20;;;;;;;15.62;88.29;100419.66;105051;1261;82531;-70
2023/06/20 00:48:07;;;;;;;17.10;13.20;;;;;;;15.60;88.35;100418.54;105014;1265;73969;-66
2023/06/20 00:50:35;;;;;;;15.70;13.80;;;;;;;15.58;88.42;100420.98;104892;1263;69202;-67
2023/06/20 00:53:06;;;;;;;19.30;13.60;;;;;;;15.56;88.55;100421.77;105077;1263;69153;-67
2023/06/20 00:55:36;;;;;;;14.60;13.10;;;;;;;15.55;88.58;100425.20;104934;1261;75728;-67
2023/06/20 00:58:05;;;;;;;14.60;12.80;;;;;;;15.53;88.56;100423.40;105065;1265;82477;-67
2023/06/20 01:00:34;;;;;;;15.60;13.90;;;;;;;15.50;88.77;100422.30;105118;1260;73723;-67
2023/06/20 01:03:09;;;;;;;17.40;14.20;;;;;;;15.50;88.83;100422.85;105103;1264;69505;-70
2023/06/20 01:05:40;;;;;;;15.80;13.60;;;;;;;15.49;88.79;100422.39;105022;1263;69219;-67
2023/06/20 01:08:08;;;;;;;;;;;;;;;15.47;88.91;100419.69;105004;1265;74788;-66
2023/06/20 01:10:47;;;;;;;14.90;13.00;;;;;;;15.45;88.94;100421.88;105000;1264;83649;-67
2023/06/20 01:13:29;;;;;;;16.50;14.00;;;;;;;15.43;89.10;100420.64;104831;1263;72802;-66
2023/06/20 01:16:04;;;;;;;15.40;13.60;;;;;;;15.41;89.15;100420.53;105060;1263;69198;-68
2023/06/20 01:19:12;;;;;;;15.10;13.10;;;;;;;15.39;89.20;100421.15;105019;1264;69112;-69
2023/06/20 01:21:49;;;;;;;17.70;14.00;;;;;;;15.37;89.11;100418.65;104853;1271;75910;-67
2023/06/20 01:24:38;;;;;;;15.10;12.80;;;;;;;15.33;89.15;100413.93;105030;1264;82528;-65
2023/06/20 01:27:24;;;;;;;16.10;13.00;;;;;;;15.31;89.18;100413.04;105013;1260;72705;-67
2023/06/20 01:29:59;;;;;;;16.30;13.40;;;;;;;15.27;89.21;100413.73;104888;1265;69282;-65
2023/06/20 01:32:28;;;;;;;15.00;13.00;;;;;;;15.25;89.34;100414.39;104847;1265;69150;-67
2023/06/20 01:35:10;;;;;;;17.20;13.50;;;;;;;15.24;89.42;100411.84;105081;1265;76013;-66
2023/06/20 01:37:40;;;;;;;16.90;13.70;;;;;;;15.22;89.48;100411.92;104889;1259;82599;-67
2023/06/20 01:40:10;;;;;;;15.10;13.60;;;;;;;15.18;89.60;100412.13;105048;1263;72692;-69
2023/06/20 01:42:40;;;;;;;16.10;13.40;;;;;;;15.20;90.24;100415.05;105050;1259;69227;-67
2023/06/20 01:45:10;;;;;;;14.50;13.00;;;;;;;15.24;90.49;100414.30;105056;1260;69208;-65
2023/06/20 01:47:38;;;;;;;;;;;;;;;15.23;90.00;100412.57;104896;1266;75603;-67
2023/06/20 01:50:07;;;;;;;18.50;12.90;;;;;;;15.18;89.92;100407.77;104763;1265;82612;-67
2023/06/20 01:52:36;;;;;;;15.30;13.70;;;;;;;15.16;90.26;100407.85;104901;1263;73845;-67
2023/06/20 01:55:10;;;;;;;15.20;13.60;;;;;;;15.18;90.87;100402.83;104880;1260;69068;-66
2023/06/20 01:57:40;;;;;;;16.50;14.00;;;;;;;15.20;90.80;100404.83;104866;1266;69138;-67
2023/06/20 02:00:10;;;;;;;;;;;;;;;15.19;90.52;100402.95;104895;1265;74585;-68
2023/06/20 02:02:45;;;;;;;18.40;15.20;;;;;;;15.16;90.77;100400.11;104917;1264;83171;-68
2023/06/20 02:05:14;;;;;;;17.20;15.40;;;;;;;15.14;90.77;100405.15;104839;1268;72688;-67
2023/06/20 02:07:44;;;;;;;17.60;15.40;;;;;;;15.14;91.00;100403.05;105056;1260;69104;-66
2023/06/20 02:10:13;;;;;;;17.10;14.70;;;;;;;15.13;90.78;100403.96;104927;1266;69216;-68
2023/06/20 02:12:43;;;;;;;17.60;14.00;;;;;;;15.13;91.04;100400.61;105083;1265;75048;-67
2023/06/20 02:15:12;;;;;;;14.30;12.90;;;;;;;15.12;90.57;100399.44;105041;1263;82773;-65
2023/06/20 02:17:41;;;;;;;18.50;14.30;;;;;;;15.08;90.35;100397.91;104817;1261;72710;-67
2023/06/20 02:20:10;;;;;;;14.80;13.10;;;;;;;15.05;90.49;100395.44;104870;1274;69160;-67
2023/06/20 02:22:41;;;;;;;18.50;14.20;;;;;;;15.00;90.19;100396.59;105057;1260;69107;-67
2023/06/20 02:25:12;;;;;;;16.10;14.10;;;;;;;14.96;90.27;100400.04;105083;1265;75925;-67
2023/06/20 02:27:42;;;;;;;14.80;13.30;;;;;;;14.91;90.34;100399.40;105052;1263;83470;-67
2023/06/20 02:30:11;;;;;;;15.50;13.90;;;;;;;14.88;90.42;100399.57;104860;1260;74029;-66
2023/06/20 02:32:42;;;;;;;16.00;14.10;;;;;;;14.87;90.63;100400.11;105042;1265;69077;-65
2023/06/20 02:35:12;;;;;;;15.70;14.10;;;;;;;14.87;90.63;100402.06;105058;1260;69056;-66
2023/06/20 02:37:42;;;;;;;16.40;13.40;;;;;;;14.87;90.74;100401.05;105063;1264;75030;-68
2023/06/20 02:40:11;;;;;;;15.40;13.80;;;;;;;14.84;90.78;100400.98;105035;1263;83262;-65
2023/06/20 02:42:39;;;;;;;16.70;14.30;;;;;;;14.83;90.90;100402.80;105080;1265;72918;-68
2023/06/20 02:45:12;;;;;;;16.10;14.00;;;;;;;14.82;91.12;100400.73;104993;1260;69262;-64
2023/06/20 02:47:57;;;;;;;15.70;14.00;;;;;;;14.83;91.22;100404.58;105024;1264;69198;-68
2023/06/20 02:50:48;;;;;;;16.10;13.30;;;;;;;14.83;91.28;100406.85;105048;1260;75927;-68
2023/06/20 02:53:38;;;;;;;16.10;14.30;;;;;;;14.82;91.21;100413.98;105035;1265;83318;-66
2023/06/20 02:56:10;;;;;;;14.50;13.00;;;;;;;14.81;91.58;100415.95;105012;1263;73911;-68
2023/06/20 02:58:46;;;;;;;16.70;14.40;;;;;;;14.82;91.69;100415.73;104882;1260;69183;-67
2023/06/20 03:01:20;;;;;;;16.00;14.20;;;;;;;14.81;91.55;100416.80;105070;1264;69224;-67
2023/06/20 03:03:51;;;;;;;15.70;14.10;;;;;;;14.82;91.65;100411.87;105104;1263;75820;-65
2023/06/20 03:06:20;;;;;;;;;;;;;;;14.83;91.75;100407.08;104900;1265;83857;-67
2023/06/20 03:08:49;;;;;;;15.60;13.60;;;;;;;14.83;92.03;100404.04;105082;1263;72842;-65
2023/06/20 03:11:18;;;;;;;16.00;12.90;;;;;;;14.85;92.11;100404.98;104933;1264;69141;-66
2023/06/20 03:13:47;;;;;;;17.60;13.90;;;;;;;14.86;92.13;100409.70;105012;1264;69118;-68
2023/06/20 03:16:16;;;;;;;16.20;12.90;;;;;;;14.88;92.54;100408.87;104908;1265;74178;-68
2023/06/20 03:18:46;;;;;;;16.10;14.40;;;;;;;14.94;92.89;100409.28;104953;1265;82504;-67
2023/06/20 03:21:15;;;;;;;16.00;13.50;;;;;;;15.02;93.13;100409.54;104988;1260;72757;-64
2023/06/20 03:23:59;;;;;;;14.90;13.30;;;;;;;15.06;92.96;100406.84;105014;1263;69229;-67
2023/06/20 03:26:27;;;;;;;16.80;15.00;;;;;;;15.08;92.92;100407.96;105069;1265;69208;-68
2023/06/20 03:28:57;;;;;;;18.80;14.40;;;;;;;15.11;93.10;100410.73;105019;1267;75648;-65
2023/06/20 03:31:26;;;;;;;15.40;13.50;;;;;;;15.17;93.20;100413.98;105070;1263;82522;-68
2023/06/20 03:33:55;;;;;;;15.70;14.10;;;;;;;15.20;93.18;100417.29;105026;1263;73887;-68
2023/06/20 03:36:24;;;;;;;15.30;13.80;;;;;;;15.26;93.37;100421.59;105017;1266;69392;-65
2023/06/20 03:38:53;;;;;;;16.00;13.90;;;;;;;15.31;93.56;100424.96;105078;1263;69139;-66
2023/06/20 03:41:22;;;;;;;16.20;13.60;;;;;;;15.39;93.72;100427.89;105065;1264;74186;-68
2023/06/20 03:43:50;;;;;;;17.50;14.00;;;;;;;15.44;93.81;100427.63;105000;1261;83428;-70
2023/06/20 03:46:19;;;;;;;16.50;14.40;;;;;;;15.49;94.01;100427.65;104989;1273;73832;-70
2023/06/20 03:48:48;;;;;;;18.40;15.10;;;;;;;15.55;94.06;100423.05;104829;1262;69026;-69
2023/06/20 03:51:17;;;;;;;16.10;14.40;;;;;;;15.62;94.13;100422.14;105009;1260;69138;-67
2023/06/20 03:53:46;;;;;;;18.80;16.00;;;;;;;15.71;94.33;100422.36;105013;1264;75752;-69
2023/06/20 03:56:15;;;;;;;20.80;15.60;;;;;;;15.79;94.25;100423.34;105068;1273;83354;-71
2023/06/20 03:58:43;;;;;;;18.10;16.20;;;;;;;15.87;94.30;100425.33;105012;1263;72557;-69
2023/06/20 04:01:11;;;;;;;18.40;15.80;;;;;;;15.95;94.26;100426.92;105027;1264;69172;-67
2023/06/20 04:03:40;;;;;;;17.40;15.60;;;;;;;16.05;94.34;100425.68;104848;1259;69205;-67
2023/06/20 04:06:08;;;;;;;20.40;16.60;;;;;;;16.13;94.57;100426.55;105060;1265;74564;-67
2023/06/20 04:08:37;;;;;;;17.30;15.60;;;;;;;16.25;94.91;100427.27;105005;1263;82612;-70
2023/06/20 04:11:06;;;;;;;19.60;17.60;;;;;;;16.35;94.86;100421.92;104906;1261;73981;-68
2023/06/20 04:13:34;;;;;;;18.60;16.60;;;;;;;16.45;95.06;100417.77;104997;1260;69096;-71
2023/06/20 04:16:03;;;;;;;22.10;15.90;;;;;;;16.56;95.08;100415.00;105055;1263;69222;-64
2023/06/20 04:18:31;;;;;;;19.10;16.20;;;;;;;16.66;94.99;100416.46;104880;1265;75968;-66
2023/06/20 04:21:02;;;;;;;18.00;15.70;;;;;;;16.76;94.86;100417.98;105036;1265;82560;-68
2023/06/20 04:23:30;;;;;;;18.60;16.20;;;;;;;16.86;94.75;100416.69;104998;1263;73758;-64
2023/06/20 04:25:59;;;;;;;17.40;15.50;;;;;;;16.95;94.73;100415.73;105000;1273;69228;-66
2023/06/20 04:28:28;;;;;;;19.30;16.80;;;;;;;17.06;94.70;100414.04;105031;1265;69221;-66
2023/06/20 04:31:00;;;;;;;19.00;15.80;;;;;;;17.16;94.71;100417.63;104993;1264;74141;-65
2023/06/20 04:33:28;;;;;;;;;;;;;;;17.25;94.71;100415.24;104876;1269;82850;-66
2023/06/20 04:35:58;;;;;;;19.10;16.20;;;;;;;17.35;95.00;100413.88;105028;1260;74185;-66
2023/06/20 04:38:37;;;;;;;18.40;16.50;;;;;;;17.47;94.92;100420.18;104891;1266;69071;-67
2023/06/20 04:41:06;;;;;;;18.40;16.50;;;;;;;17.59;94.67;100423.63;104941;1259;69175;-65
2023/06/20 04:43:35;;;;;;;18.30;16.30;;;;;;;17.70;94.57;100416.02;105039;1263;74528;-68
2023/06/20 04:46:04;;;;;;;18.50;16.50;;;;;;;17.80;94.46;100414.47;104885;1261;83703;-69
2023/06/20 04:48:36;;;;;;;17.80;15.90;;;;;;;17.90;94.33;100418.06;104918;1264;74409;-67
2023/06/20 04:51:07;;;;;;;17.80;16.00;;;;;;;18.01;94.22;100420.50;104953;1261;69149;-69
2023/06/20 04:53:37;;;;;;;18.20;16.40;;;;;;;18.12;94.06;100418.23;105019;1264;69190;-67
2023/06/20 04:56:05;;;;;;;18.50;16.70;;;;;;;18.20;94.10;100419.90;105004;1264;75740;-68
2023/06/20 04:58:34;;;;;;;17.90;16.00;;;;;;;18.31;93.93;100419.21;104947;1264;83205;-68
2023/06/20 05:01:03;;;;;;;19.00;17.00;;;;;;;18.39;93.55;100423.55;104873;1263;72854;-66
2023/06/20 05:03:31;;;;;;;18.30;16.40;;;;;;;18.48;93.38;100422.41;105143;1261;69077;-67
2023/06/20 05:06:00;;;;;;;20.10;18.00;;;;;;;18.57;93.01;100418.67;105083;1266;69225;-65
2023/06/20 05:08:28;;;;;;;19.30;17.40;;;;;;;18.65;92.65;100421.95;104840;1269;74752;-62
2023/06/20 05:10:56;;;;;;;20.60;18.30;;;;;;;18.73;92.30;100426.34;104783;1260;82870;-62
2023/06/20 05:13:25;;;;;;;19.10;17.00;;;;;;;18.81;91.85;100431.81;104947;1273;72826;-65
2023/06/20 05:15:53;;;;;;;18.80;16.80;;;;;;;18.88;91.35;100435.36;104896;1266;69202;-63
2023/06/20 05:18:21;;;;;;;19.40;17.50;;;;;;;18.96;91.15;100437.33;104907;1264;69174;-63
2023/06/20 05:20:50;;;;;;;19.70;17.60;;;;;;;19.03;90.69;100438.91;104977;1261;76938;-65
2023/06/20 05:23:19;;;;;;;19.50;17.50;;;;;;;19.10;90.43;100438.81;104959;1264;83279;-66
2023/06/20 05:25:47;;;;;;;18.70;16.80;;;;;;;19.18;90.30;100441.41;104951;1261;72722;-65
2023/06/20 05:28:15;;;;;;;20.30;17.80;;;;;;;19.26;89.89;100444.87;104928;1264;69209;-67
2023/06/20 05:30:44;;;;;;;19.00;17.00;;;;;;;19.33;89.41;100447.77;104971;1264;69098;-65
2023/06/20 05:33:12;;;;;;;18.50;16.60;;;;;;;19.38;89.20;100447.36;104977;1264;75724;-64
2023/06/20 05:35:44;;;;;;;19.70;17.80;;;;;;;19.44;89.09;100449.10;105103;1264;83507;-65
2023/06/20 05:38:13;;;;;;;19.20;17.30;;;;;;;19.50;89.04;100450.07;105056;1273;73928;-64
2023/06/20 05:40:42;;;;;;;19.70;17.50;;;;;;;19.54;88.77;100449.56;105025;1264;68990;-65
2023/06/20 05:43:10;;;;;;;18.80;16.50;;;;;;;19.58;88.70;100452.27;104957;1266;69150;-65
2023/06/20 05:45:39;;;;;;;19.40;16.90;;;;;;;19.64;88.43;100457.73;104932;1261;74707;-65
2023/06/20 05:48:11;;;;;;;18.00;16.20;;;;;;;19.68;88.09;100463.46;105064;1264;83666;-63
2023/06/20 05:50:41;;;;;;;21.80;16.70;;;;;;;19.72;87.80;100471.14;105038;1264;74186;-68
2023/06/20 05:53:09;;;;;;;18.80;16.90;;;;;;;19.76;87.59;100477.38;105056;1260;69217;-64
2023/06/20 05:55:39;;;;;;;16.90;15.20;;;;;;;19.80;87.32;100478.02;104913;1264;69236;-62
2023/06/20 05:58:08;;;;;;;18.00;16.20;;;;;;;19.84;87.10;100481.73;104701;1273;202391;-64
2023/06/20 06:00:37;;;;;;;18.50;16.60;;;;;;;19.89;86.74;100481.25;104988;1276;83263;-62
2023/06/20 06:03:05;;;;;;;17.00;15.20;;;;;;;19.94;86.53;100480.71;104873;1261;72740;-63
2023/06/20 06:05:34;;;;;;;17.10;15.30;;;;;;;20.01;86.45;100482.98;104979;1266;69208;-62
2023/06/20 06:08:02;;;;;;;17.60;15.80;;;;;;;20.09;86.23;100485.77;105045;1261;69119;-63
2023/06/20 06:10:31;;;;;;;18.00;15.90;;;;;;;20.17;85.93;100483.02;104896;1264;75957;-63
2023/06/20 06:13:00;;;;;;;17.90;15.90;;;;;;;20.25;85.82;100487.23;105100;1264;82510;-63
2023/06/20 06:15:28;;;;;;;22.70;17.00;;;;;;;20.36;85.80;100486.41;105146;1260;73384;-63
2023/06/20 06:17:56;;;;;;;18.10;15.30;;;;;;;20.46;85.49;100488.10;104874;1264;69157;-64
2023/06/20 06:20:26;;;;;;;16.70;15.00;;;;;;;20.54;85.17;100492.64;105101;1264;69233;-62
2023/06/20 06:22:55;;;;;;;18.40;16.30;;;;;;;20.63;84.98;100492.13;105188;1264;73791;-64
2023/06/20 06:25:24;;;;;;;18.70;15.40;;;;;;;20.72;84.72;100491.05;105069;1264;82415;-68
2023/06/20 06:27:52;;;;;;;17.30;15.30;;;;;;;20.81;84.57;100488.23;105018;1261;72603;-73
2023/06/20 06:30:23;;;;;;;19.00;16.10;;;;;;;20.92;84.34;100486.88;104994;1261;69087;-70
2023/06/20 06:32:53;;;;;;;18.80;15.40;;;;;;;21.00;84.00;100485.88;104971;1267;69199;-70
2023/06/20 06:35:22;;;;;;;19.20;15.80;;;;;;;21.05;83.82;100487.06;105052;1266;75934;-68
2023/06/20 06:37:52;;;;;;;17.30;15.50;;;;;;;21.09;83.43;100489.95;104778;1267;83327;-71
2023/06/20 06:40:20;;;;;;;17.90;16.10;;;;;;;21.13;83.00;100494.58;104861;1266;74298;-70
2023/06/20 06:42:49;;;;;;;16.30;14.70;;;;;;;21.18;82.87;100492.96;104837;1261;69179;-71
2023/06/20 06:45:18;;;;;;;17.30;15.00;;;;;;;21.24;82.63;100490.66;104827;1267;69692;-71
2023/06/20 06:47:47;;;;;;;18.70;15.80;;;;;;;21.31;82.34;100492.77;104981;1264;75851;-70
2023/06/20 06:50:15;;;;;;;18.00;16.10;;;;;;;21.37;82.22;100491.41;104823;1264;82794;-70
2023/06/20 06:52:44;;;;;;;17.50;15.60;;;;;;;21.45;82.24;100494.41;104908;1265;73436;-72
2023/06/20 06:55:12;;;;;;;16.40;14.90;;;;;;;21.53;82.05;100496.34;104853;1261;69205;-68
2023/06/20 06:57:40;;;;;;;18.70;16.10;;;;;;;21.61;81.97;100495.70;104904;1267;69224;-69
2023/06/20 07:00:12;;;;;;;16.60;15.00;;;;;;;21.71;81.68;100498.30;104864;1261;75856;-71
2023/06/20 07:02:43;;;;;;;16.00;14.40;;;;;;;21.78;81.52;100495.03;104908;1260;83328;-69
2023/06/20 07:05:12;;;;;;;15.50;14.00;;;;;;;21.89;81.23;100498.06;104840;1260;73753;-71
2023/06/20 07:07:40;;;;;;;15.30;13.60;;;;;;;21.97;80.58;100501.08;104985;1262;69211;-69
2023/06/20 07:10:09;;;;;;;14.30;12.80;;;;;;;22.09;80.45;100501.70;104927;1260;69155;-71
2023/06/20 07:12:38;;;;;;;16.40;13.80;;;;;;;22.20;79.75;100500.78;104945;1260;74374;-58
2023/06/20 07:15:07;;;;;;;15.40;13.40;;;;;;;22.30;79.64;100493.89;104828;1260;81804;-59
2023/06/20 07:17:36;;;;;;;16.90;15.10;;;;;;;22.42;79.31;100497.04;104745;1261;72689;-60
2023/06/20 07:20:08;;;;;;;15.90;13.60;;;;;;;22.51;79.19;100494.11;104811;1265;69228;-62
2023/06/20 07:22:37;;;;;;;15.60;14.00;;;;;;;22.63;79.11;100494.98;104890;1266;69148;-59
2023/06/20 07:25:08;;;;;;;16.20;14.70;;;;;;;22.75;79.04;100494.69;104931;1267;76087;-63
2023/06/20 07:27:36;;;;;;;15.20;13.60;;;;;;;22.89;78.85;100487.78;104890;1265;83368;-62
2023/06/20 07:30:05;;;;;;;13.80;12.20;;;;;;;22.99;78.17;100485.31;104850;1265;73043;-59
2023/06/20 07:32:33;;;;;;;13.80;12.50;;;;;;;23.12;78.11;100483.86;104913;1266;70756;-58
2023/06/20 07:35:02;;;;;;;14.90;13.30;;;;;;;23.29;77.99;100482.48;104872;1265;69208;-60
2023/06/20 07:37:30;;;;;;;14.10;12.70;;;;;;;23.46;77.71;100477.60;104892;1260;75421;-62
2023/06/20 07:39:59;;;;;;;14.70;13.30;;;;;;;23.59;76.70;100473.05;104918;1267;83467;-62
2023/06/20 07:42:28;;;;;;;14.70;13.30;;;;;;;23.68;76.43;100475.60;104889;1261;74976;-59
2023/06/20 07:44:58;;;;;;;15.20;13.60;;;;;;;23.81;76.24;100472.17;104930;1274;69164;-62
2023/06/20 07:47:26;;;;;;;15.90;13.60;;;;;;;23.95;76.06;100469.98;104950;1260;69316;-60
2023/06/20 07:49:55;;;;;;;17.40;12.60;;;;;;;24.11;75.82;100467.26;104876;1261;75985;-60
2023/06/20 07:52:23;;;;;;;15.10;12.90;;;;;;;24.26;74.95;100470.98;104866;1265;83320;-60
2023/06/20 07:54:52;;;;;;;14.90;13.50;;;;;;;24.37;74.50;100468.74;105007;1261;73881;-60
2023/06/20 07:57:20;;;;;;;14.40;12.80;;;;;;;24.48;74.25;100468.07;104888;1261;69082;-60
2023/06/20 07:59:49;;;;;;;14.00;12.20;;;;;;;24.60;73.39;100466.95;104884;1264;69237;-62
2023/06/20 08:02:17;;;;;;;13.60;12.30;;;;;;;24.65;72.46;100466.66;104948;1260;76046;-64
2023/06/20 08:04:45;;;;;;;13.60;12.10;;;;;;;24.66;71.69;100467.44;104918;1261;82606;-61
2023/06/20 08:07:14;;;;;;;13.60;12.00;;;;;;;24.72;71.50;100466.80;104854;1264;72822;-63
2023/06/20 08:09:43;;;;;;;14.10;12.60;;;;;;;24.85;71.41;100463.67;104977;1263;69123;-58
2023/06/20 08:12:11;;;;;;;14.00;12.60;;;;;;;24.97;70.74;100464.64;104880;1264;69215;-63
2023/06/20 08:14:40;;;;;;;13.10;11.80;;;;;;;25.07;70.56;100464.94;104897;1265;75693;-61
2023/06/20 08:17:08;;;;;;;13.90;12.60;;;;;;;25.20;70.22;100465.63;104887;1261;83393;-58
2023/06/20 08:19:36;;;;;;;12.40;11.20;;;;;;;25.33;69.73;100464.39;104842;1265;74064;-65
2023/06/20 08:22:05;;;;;;;12.80;11.50;;;;;;;25.41;69.01;100468.74;104933;1265;69211;-61
2023/06/20 08:24:34;;;;;;;13.70;11.80;;;;;;;25.52;68.82;100469.86;104992;1260;69195;-64
2023/06/20 08:27:04;;;;;;;12.50;11.20;;;;;;;25.66;68.28;100470.63;104959;1265;74646;-63
2023/06/20 08:29:34;;;;;;;12.10;10.90;;;;;;;25.77;67.15;100466.77;104877;1265;83365;-60
2023/06/20 08:32:03;;;;;;;12.10;11.00;;;;;;;25.90;66.48;100468.11;104901;1265;73900;-59
2023/06/20 08:34:31;;;;;;;12.40;11.20;;;;;;;25.97;65.94;100466.60;104969;1261;69223;-61
2023/06/20 08:37:00;;;;;;;13.70;10.80;;;;;;;26.06;65.46;100467.11;104870;1266;69331;-60
2023/06/20 08:39:29;;;;;;;10.60;9.50;;;;;;;26.17;64.67;100464.77;104971;1260;75356;-60
2023/06/20 08:41:57;;;;;;;11.60;10.60;;;;;;;26.30;63.83;100464.20;105002;1265;83393;-59
2023/06/20 08:44:26;;;;;;;14.40;10.30;;;;;;;26.47;63.74;100466.54;104827;1265;72848;-59
2023/06/20 08:46:57;;;;;;;10.90;9.90;;;;;;;26.64;62.81;100464.92;104880;1260;69130;-62
2023/06/20 08:49:25;;;;;;;14.00;10.50;;;;;;;26.84;62.28;100461.83;104898;1267;69244;-59
2023/06/20 08:51:58;;;;;;;10.60;8.90;;;;;;;27.10;62.31;100464.13;104908;1261;75378;-59
2023/06/20 08:54:30;;;;;;;10.30;8.70;;;;;;;27.34;61.02;100466.81;104978;1265;83476;-61
2023/06/20 08:56:59;;;;;;;8.70;7.90;;;;;;;27.55;59.48;100468.52;104896;1261;73654;-62
2023/06/20 08:59:28;;;;;;;8.40;7.30;;;;;;;27.74;58.63;100468.80;104922;1261;69082;-60
2023/06/20 09:01:56;;;;;;;8.30;7.50;;;;;;;27.92;56.81;100470.11;104901;1261;69184;-59
2023/06/20 09:04:28;;;;;;;9.80;6.60;;;;;;;28.05;55.49;100469.73;104895;1261;75297;-59
2023/06/20 09:06:57;;;;;;;7.80;6.40;;;;;;;28.14;54.26;100468.01;104945;1261;83222;-61
2023/06/20 09:09:25;;;;;;;11.20;7.70;;;;;;;28.25;54.45;100458.66;104905;1260;72847;-57
2023/06/20 09:11:59;;;;;;;9.90;8.00;;;;;;;28.38;54.24;100456.23;104958;1261;69318;-59
2023/06/20 09:14:29;;;;;;;8.70;7.80;;;;;;;28.53;53.83;100454.95;104919;1265;69228;-63
2023/06/20 09:16:57;;;;;;;9.80;7.60;;;;;;;28.67;53.21;100453.70;104930;1266;75882;-61
2023/06/20 09:19:26;;;;;;;9.10;7.40;;;;;;;28.80;52.81;100446.27;104865;1260;83032;-61
2023/06/20 09:22:04;;;;;;;8.10;6.60;;;;;;;28.99;52.45;100441.11;104977;1266;73043;-60
2023/06/20 09:24:42;;;;;;;8.10;6.90;;;;;;;29.15;51.00;100439.98;104866;1260;69218;-61
2023/06/20 09:27:12;;;;;;;7.70;7.10;;;;;;;29.32;50.82;100439.05;104925;1260;69070;-60
2023/06/20 09:30:00;;;;;;;7.80;6.90;;;;;;;29.51;50.05;100437.66;105033;1260;74734;-62
2023/06/20 09:32:36;;;;;;;6.90;6.20;;;;;;;29.70;49.75;100441.13;104968;1261;83466;-63
2023/06/20 09:35:13;;;;;;;7.60;6.90;;;;;;;29.93;49.07;100444.36;104924;1265;73559;-61
2023/06/20 09:37:48;;;;;;;7.40;6.80;;;;;;;30.13;48.14;100445.95;104968;1261;69106;-60
2023/06/20 09:40:18;;;;;;;8.60;7.40;;;;;;;30.30;47.94;100440.70;104829;1260;69122;-61
2023/06/20 09:42:47;;;;;;;8.40;7.20;;;;;;;30.51;46.99;100443.40;104823;1260;74646;-61
2023/06/20 09:45:16;;;;;;;8.10;7.10;;;;;;;30.63;46.46;100439.77;104943;1265;84020;-59
2023/06/20 09:47:45;;;;;;;;;;;;;;;30.70;46.08;100436.83;105023;1265;74061;-60
2023/06/20 09:50:19;;;;;;;8.70;6.80;;;;;;;30.87;46.25;100437.28;104924;1261;69186;-60
2023/06/20 09:52:58;;;;;;;7.80;7.10;;;;;;;30.95;46.02;100436.15;104962;1261;69208;-61
2023/06/20 09:55:27;;;;;;;7.40;6.60;;;;;;;30.88;45.26;100435.21;104927;1261;75906;-60
2023/06/20 09:57:58;;;;;;;7.90;7.00;;;;;;;30.83;44.96;100438.08;104769;1266;83654;-60
2023/06/20 10:00:29;;;;;;;8.30;7.50;;;;;;;30.81;44.50;100441.20;104879;1260;73722;-60
2023/06/20 10:03:00;;;;;;;8.40;7.70;;;;;;;30.79;44.43;100442.05;104927;1261;69340;-58
2023/06/20 10:05:32;;;;;;;8.40;7.60;;;;;;;30.79;44.85;100441.50;104873;1260;69263;-61
2023/06/20 10:08:01;;;;;;;8.50;7.60;;;;;;;30.94;45.03;100437.14;104918;1260;75580;-58
2023/06/20 10:10:29;;;;;;;8.60;7.80;;;;;;;31.23;44.62;100437.81;104957;1260;83942;-60
2023/06/20 10:12:58;;;;;;;8.10;7.30;;;;;;;31.45;44.13;100436.25;104885;1265;72999;-61
2023/06/20 10:15:27;;;;;;;9.40;7.70;;;;;;;31.64;44.06;100430.20;104918;1262;69190;-61
2023/06/20 10:17:55;;;;;;;8.30;7.40;;;;;;;31.66;43.80;100432.13;104938;1265;69226;-58
2023/06/20 10:20:37;;;;;;;7.70;6.90;;;;;;;31.52;43.35;100432.65;104869;1265;74731;-59
2023/06/20 10:23:09;;;;;;;7.60;6.80;;;;;;;31.41;43.11;100429.75;104898;1264;82397;-60
2023/06/20 10:25:51;;;;;;;8.10;7.20;;;;;;;31.53;43.18;100430.20;104890;1261;73660;-61
2023/06/20 10:28:20;;;;;;;7.90;7.20;;;;;;;31.72;43.12;100427.94;104984;1261;69143;-61
2023/06/20 10:30:54;;;;;;;;;;;;;;;31.80;42.98;100433.26;104956;1260;69190;-59
2023/06/20 10:33:24;;;;;;;7.40;6.80;;;;;;;31.84;43.18;100436.73;104914;1265;75357;-60
2023/06/20 10:36:06;;;;;;;8.00;7.20;;;;;;;31.99;43.49;100436.11;104974;1262;83447;-60
2023/06/20 10:38:48;;;;;;;7.50;6.80;;;;;;;32.09;42.90;100435.57;104891;1260;73684;-60
2023/06/20 10:41:25;;;;;;;8.40;7.00;;;;;;;32.18;43.08;100431.17;104760;1265;69324;-60
2023/06/20 10:43:58;;;;;;;7.60;6.90;;;;;;;32.41;42.78;100426.55;104884;1261;69799;-58
2023/06/20 10:46:36;;;;;;;7.60;7.00;;;;;;;32.67;42.33;100425.51;104945;1261;75633;-61
2023/06/20 10:49:06;;;;;;;7.70;6.90;;;;;;;33.07;41.95;100415.93;104853;1265;83731;-58
2023/06/20 10:51:44;;;;;;;7.50;6.90;;;;;;;33.45;41.64;100416.71;104894;1265;73973;-61
2023/06/20 10:54:13;;;;;;;7.60;6.80;;;;;;;33.80;41.12;100415.34;105023;1265;69238;-59
2023/06/20 10:56:43;;;;;;;7.80;7.00;;;;;;;34.19;40.92;100412.01;104908;1260;69371;-61
2023/06/20 10:59:17;;;;;;;7.50;6.80;;;;;;;34.60;40.64;100409.72;104940;1265;76069;-59
2023/06/20 11:01:46;;;;;;;7.60;6.60;;;;;;;34.71;39.60;100410.28;104909;1261;83710;-59
2023/06/20 11:04:16;;;;;;;7.30;6.70;;;;;;;34.75;38.71;100407.71;105013;1260;73941;-63
2023/06/20 11:06:47;;;;;;;8.00;6.20;;;;;;;34.90;38.66;100402.54;104898;1265;69196;-58
2023/06/20 11:09:17;;;;;;;7.70;6.50;;;;;;;35.10;38.36;100403.34;104904;1265;69205;-59
2023/06/20 11:11:47;;;;;;;10.70;6.90;;;;;;;35.15;37.97;100400.00;104879;1259;74674;-59
2023/06/20 11:14:21;;;;;;;7.10;6.30;;;;;;;35.38;37.54;100397.14;104934;1260;82397;-59
2023/06/20 11:16:51;;;;;;;7.60;6.80;;;;;;;35.68;37.11;100397.78;104902;1261;73649;-59
2023/06/20 11:19:21;;;;;;;6.80;6.20;;;;;;;35.86;36.87;100400.20;104946;1265;69267;-59
2023/06/20 11:21:53;;;;;;;7.10;6.50;;;;;;;35.97;36.51;100399.89;104620;1269;69190;-60